Time;durP1;ratioP1;P1;durP2;ratioP2;P2;SDS_P1;SDS_P2;PMS_P1;PMS_P2;Temp;Humidity;BMP_temperature;BMP_pressure;BME280_temperature;BME280_humidity;BME280_pressure;Samples;Min_cycle;Max_cycle;Signal;HPM_P1;HPM_P2
2023/08/19 00:03:48;;;;;;;13.32;11.85;;;;;;;;;;10104951;28;20092;-74
2023/08/19 00:08:40;;;;;;;11.75;10.52;;;;;;;;;;10098925;28;20392;-74
2023/08/19 00:13:32;;;;;;;13.98;10.40;;;;;;;;;;10103027;28;20372;-74
2023/08/19 00:18:24;;;;;;;11.65;9.77;;;;;;;;;;10102674;28;20049;-74
2023/08/19 00:23:16;;;;;;;12.00;10.77;;;;;;;;;;10103664;28;20049;-75
2023/08/19 00:28:08;;;;;;;18.17;11.57;;;;;;;;;;10102984;28;20131;-73
2023/08/19 00:33:00;;;;;;;11.05;10.00;;;;;;;;;;10095194;28;20044;-73
2023/08/19 00:37:52;;;;;;;12.60;11.05;;;;;;;;;;10083559;28;20651;-74
2023/08/19 00:42:46;;;;;;;12.40;10.45;;;;;;;;;;10103395;28;20107;-78
2023/08/19 00:47:40;;;;;;;13.02;11.30;;;;;;;;;;10079704;28;20080;-72
2023/08/19 00:52:34;;;;;;;15.40;10.05;;;;;;;;;;10069830;28;20041;-73
2023/08/19 00:57:26;;;;;;;11.70;10.55;;;;;;;;;;10101555;28;20048;-74
2023/08/19 01:02:17;;;;;;;11.32;10.18;;;;;;;;;;10103284;28;20052;-73
2023/08/19 01:07:36;;;;;;;11.13;10.02;;;;;;;;;;10101248;28;20053;-74
2023/08/19 01:12:47;;;;;;;11.27;10.20;;;;;;;;;;10056671;28;20041;-73
2023/08/19 01:17:39;;;;;;;15.88;11.40;;;;;;;;;;10097976;28;20048;-72
2023/08/19 01:22:56;;;;;;;14.82;10.77;;;;;;;;;;10089167;28;20049;-74
2023/08/19 01:27:48;;;;;;;12.27;10.75;;;;;;;;;;10078947;28;20037;-74
2023/08/19 01:32:41;;;;;;;13.15;11.80;;;;;;;;;;10081983;28;20163;-73
2023/08/19 01:37:43;;;;;;;12.45;11.13;;;;;;;;;;10083873;28;20459;-73
2023/08/19 01:42:35;;;;;;;12.07;10.93;;;;;;;;;;10101194;28;20052;-72
2023/08/19 01:47:27;;;;;;;11.70;10.50;;;;;;;;;;10079272;28;20084;-71
2023/08/19 01:52:20;;;;;;;12.15;10.90;;;;;;;;;;10092183;28;20045;-73
2023/08/19 01:57:12;;;;;;;12.93;11.63;;;;;;;;;;10081831;28;20037;-73
2023/08/19 02:02:04;;;;;;;11.57;10.23;;;;;;;;;;10083712;28;20447;-72
2023/08/19 02:06:57;;;;;;;11.60;10.10;;;;;;;;;;10099810;28;20056;-71
2023/08/19 02:11:49;;;;;;;15.98;10.88;;;;;;;;;;10082894;28;20048;-71
2023/08/19 02:16:41;;;;;;;14.10;10.93;;;;;;;;;;10081777;28;20049;-72
2023/08/19 02:21:34;;;;;;;11.82;10.13;;;;;;;;;;10099004;28;20103;-71
2023/08/19 02:26:26;;;;;;;12.40;11.20;;;;;;;;;;10099867;28;20095;-70
2023/08/19 02:31:18;;;;;;;13.10;11.80;;;;;;;;;;10100686;28;20339;-70
2023/08/19 02:36:11;;;;;;;14.60;12.18;;;;;;;;;;10099983;28;20045;-72
2023/08/19 02:41:04;;;;;;;12.02;10.85;;;;;;;;;;10106550;28;20218;-70
2023/08/19 02:45:57;;;;;;;12.13;10.90;;;;;;;;;;10108195;28;20099;-71
2023/08/19 02:50:53;;;;;;;11.23;10.02;;;;;;;;;;10106428;28;20060;-73
2023/08/19 02:55:45;;;;;;;12.45;11.25;;;;;;;;;;10089224;28;20049;-73
2023/08/19 03:00:37;;;;;;;13.95;11.20;;;;;;;;;;10089967;28;20124;-72
2023/08/19 03:05:29;;;;;;;13.77;10.48;;;;;;;;;;10108644;28;20630;-73
2023/08/19 03:10:21;;;;;;;12.73;11.50;;;;;;;;;;10104943;28;20043;-72
2023/08/19 03:15:13;;;;;;;14.75;13.10;;;;;;;;;;10086529;28;20096;-73
2023/08/19 03:20:05;;;;;;;14.15;12.82;;;;;;;;;;10105910;28;20064;-73
2023/08/19 03:24:58;;;;;;;16.35;14.80;;;;;;;;;;10104562;28;20127;-69
2023/08/19 03:29:50;;;;;;;17.20;14.60;;;;;;;;;;10105099;28;20045;-73
2023/08/19 03:34:42;;;;;;;14.52;13.32;;;;;;;;;;10106953;28;20044;-73
2023/08/19 03:39:34;;;;;;;14.10;12.90;;;;;;;;;;10087259;28;20530;-72
2023/08/19 03:44:26;;;;;;;14.40;13.10;;;;;;;;;;10105243;28;20076;-73
2023/08/19 03:49:19;;;;;;;12.52;11.40;;;;;;;;;;10105265;28;20076;-72
2023/08/19 03:54:11;;;;;;;21.55;14.10;;;;;;;;;;10070604;28;20079;-72
2023/08/19 03:59:03;;;;;;;14.00;12.15;;;;;;;;;;10083144;28;20037;-73
2023/08/19 04:03:55;;;;;;;13.70;11.25;;;;;;;;;;10087308;28;20356;-73
2023/08/19 04:08:48;;;;;;;12.88;11.25;;;;;;;;;;10105615;28;20055;-73
2023/08/19 04:13:40;;;;;;;16.63;11.38;;;;;;;;;;10103667;28;20044;-73
2023/08/19 04:18:33;;;;;;;13.82;11.00;;;;;;;;;;10103491;28;20546;-74
2023/08/19 04:23:25;;;;;;;13.65;12.32;;;;;;;;;;10088187;28;20049;-72
2023/08/19 04:28:17;;;;;;;14.52;11.75;;;;;;;;;;10088392;28;20490;-73
2023/08/19 04:33:09;;;;;;;14.77;12.10;;;;;;;;;;10103528;28;20048;-72
2023/08/19 04:38:03;;;;;;;13.73;12.38;;;;;;;;;;10084754;28;20044;-73
2023/08/19 04:42:57;;;;;;;14.43;11.07;;;;;;;;;;10085177;28;20091;-73
2023/08/19 04:47:50;;;;;;;13.00;11.88;;;;;;;;;;10085980;28;20079;-74
2023/08/19 04:52:43;;;;;;;13.95;12.65;;;;;;;;;;10085593;28;20102;-72
2023/08/19 04:57:36;;;;;;;13.10;11.90;;;;;;;;;;10102704;28;20044;-72
2023/08/19 05:02:28;;;;;;;14.73;13.10;;;;;;;;;;10079795;28;20076;-72
2023/08/19 05:07:20;;;;;;;15.10;13.57;;;;;;;;;;10083681;28;20068;-72
2023/08/19 05:12:13;;;;;;;15.88;14.27;;;;;;;;;;10103826;28;20115;-71
2023/08/19 05:17:07;;;;;;;13.13;11.63;;;;;;;;;;10084263;28;20051;-73
2023/08/19 05:21:59;;;;;;;14.27;12.88;;;;;;;;;;10101746;28;20476;-75
2023/08/19 05:26:51;;;;;;;17.23;12.50;;;;;;;;;;10103787;28;20055;-72
2023/08/19 05:31:43;;;;;;;13.07;11.60;;;;;;;;;;10100835;28;20052;-71
2023/08/19 05:36:35;;;;;;;13.80;12.38;;;;;;;;;;10102784;28;20045;-71
2023/08/19 05:41:27;;;;;;;15.77;14.18;;;;;;;;;;10101484;28;20045;-73
2023/08/19 05:46:19;;;;;;;14.57;12.65;;;;;;;;;;10100755;28;20052;-73
2023/08/19 05:51:11;;;;;;;15.05;13.65;;;;;;;;;;10099307;28;20103;-72
2023/08/19 05:56:03;;;;;;;15.38;12.70;;;;;;;;;;10102669;28;20045;-72
2023/08/19 06:00:58;;;;;;;16.95;12.30;;;;;;;;;;10102973;28;20059;-72
2023/08/19 06:05:51;;;;;;;13.80;12.48;;;;;;;;;;10100646;28;20151;-72
2023/08/19 06:10:44;;;;;;;14.48;13.05;;;;;;;;;;10094046;28;20136;-72
2023/08/19 06:15:36;;;;;;;16.65;15.10;;;;;;;;;;10113082;28;20099;-72
2023/08/19 06:20:28;;;;;;;16.13;14.43;;;;;;;;;;10096220;28;20045;-72
2023/08/19 06:25:20;;;;;;;27.98;14.55;;;;;;;;;;10113402;28;20106;-74
2023/08/19 06:30:12;;;;;;;16.42;14.55;;;;;;;;;;10113278;28;20055;-72
2023/08/19 06:35:05;;;;;;;18.80;12.50;;;;;;;;;;10109829;28;20052;-68
2023/08/19 06:39:58;;;;;;;17.77;12.70;;;;;;;;;;10109030;28;20435;-69
2023/08/19 06:44:50;;;;;;;22.70;11.15;;;;;;;;;;10091634;28;20099;-70
2023/08/19 06:49:42;;;;;;;13.30;12.05;;;;;;;;;;10091217;28;20036;-69
2023/08/19 06:54:34;;;;;;;14.18;12.75;;;;;;;;;;10105026;28;20681;-70
2023/08/19 06:59:36;;;;;;;13.85;12.15;;;;;;;;;;10107166;28;20475;-69
2023/08/19 07:04:29;;;;;;;16.05;13.93;;;;;;;;;;10110708;28;20045;-70
2023/08/19 07:09:21;;;;;;;20.30;14.73;;;;;;;;;;10104924;28;20049;-70
2023/08/19 07:14:14;;;;;;;18.13;15.50;;;;;;;;;;10112996;28;20049;-69
2023/08/19 07:19:10;;;;;;;16.42;14.85;;;;;;;;;;10113497;28;20420;-69
2023/08/19 07:24:02;;;;;;;17.20;14.77;;;;;;;;;;10084610;28;20140;-69
2023/08/19 07:28:54;;;;;;;18.73;14.93;;;;;;;;;;10106955;28;20386;-68
2023/08/19 07:33:46;;;;;;;16.85;14.52;;;;;;;;;;10104085;28;20107;-68
2023/08/19 07:38:38;;;;;;;56.22;18.05;;;;;;;;;;10101971;28;20106;-68
2023/08/19 07:43:30;;;;;;;18.05;16.45;;;;;;;;;;10085700;28;20126;-67
2023/08/19 07:48:22;;;;;;;16.77;15.18;;;;;;;;;;10102766;28;20132;-69
2023/08/19 07:53:14;;;;;;;17.95;16.10;;;;;;;;;;10101600;28;20040;-68
2023/08/19 07:58:07;;;;;;;19.52;17.02;;;;;;;;;;10106662;28;20072;-69
2023/08/19 08:02:59;;;;;;;17.35;15.73;;;;;;;;;;10091063;28;20049;-67
2023/08/19 08:07:51;;;;;;;17.48;15.70;;;;;;;;;;10102737;28;20124;-68
2023/08/19 08:12:43;;;;;;;17.05;15.65;;;;;;;;;;10094595;28;20049;-68
2023/08/19 08:17:35;;;;;;;19.15;16.63;;;;;;;;;;10106461;28;20044;-69
2023/08/19 08:22:27;;;;;;;21.67;15.63;;;;;;;;;;10105920;28;20092;-70
2023/08/19 08:27:19;;;;;;;17.25;15.52;;;;;;;;;;10108073;28;20037;-69
2023/08/19 08:32:11;;;;;;;16.67;15.18;;;;;;;;;;10093084;28;20053;-69
2023/08/19 08:37:03;;;;;;;29.77;16.75;;;;;;;;;;10111372;28;20041;-68
2023/08/19 08:41:54;;;;;;;17.25;15.65;;;;;;;;;;10107364;28;20442;-70
2023/08/19 08:46:50;;;;;;;17.50;15.90;;;;;;;;;;10088929;28;20049;-68
2023/08/19 08:51:41;;;;;;;23.88;16.67;;;;;;;;;;10106195;28;20498;-69
2023/08/19 08:56:33;;;;;;;16.17;14.45;;;;;;;;;;10096256;28;20458;-67
2023/08/19 09:01:29;;;;;;;19.25;16.27;;;;;;;;;;10105282;28;20068;-67
2023/08/19 09:06:21;;;;;;;17.83;16.02;;;;;;;;;;10086806;28;20064;-71
2023/08/19 09:11:17;;;;;;;22.38;17.85;;;;;;;;;;10104687;28;20495;-69
2023/08/19 09:16:11;;;;;;;18.45;14.45;;;;;;;;;;10086960;28;20131;-68
2023/08/19 09:21:03;;;;;;;23.70;15.05;;;;;;;;;;10087039;28;20041;-67
2023/08/19 09:25:57;;;;;;;18.13;13.90;;;;;;;;;;10087883;28;20091;-68
2023/08/19 09:30:49;;;;;;;16.25;14.75;;;;;;;;;;10088022;28;20091;-69
2023/08/19 09:35:41;;;;;;;16.13;14.68;;;;;;;;;;10105678;28;20128;-69
2023/08/19 09:40:58;;;;;;;18.48;15.18;;;;;;;;;;10106106;28;20045;-68
2023/08/19 09:45:50;;;;;;;18.13;15.18;;;;;;;;;;10103365;28;20131;-67
2023/08/19 09:50:45;;;;;;;21.83;17.48;;;;;;;;;;10101403;28;20423;-68
2023/08/19 09:55:38;;;;;;;23.90;17.80;;;;;;;;;;10101265;28;20048;-69
2023/08/19 10:00:30;;;;;;;20.98;16.63;;;;;;;;;;10101788;28;20052;-67
2023/08/19 10:05:23;;;;;;;20.65;17.35;;;;;;;;;;10100119;28;20366;-68
2023/08/19 10:10:15;;;;;;;16.88;15.48;;;;;;;;;;10099458;28;20048;-68
2023/08/19 10:15:09;;;;;;;15.70;14.05;;;;;;;;;;10080092;28;20037;-67
2023/08/19 10:20:09;;;;;;;15.57;14.15;;;;;;;;;;10083610;28;20049;-69
2023/08/19 10:25:04;;;;;;;15.43;13.98;;;;;;;;;;10081539;28;20053;-68
2023/08/19 10:29:57;;;;;;;15.10;13.45;;;;;;;;;;10098345;28;20131;-68
2023/08/19 10:34:49;;;;;;;15.55;13.02;;;;;;;;;;10097897;28;20053;-69
2023/08/19 10:39:46;;;;;;;17.45;15.05;;;;;;;;;;10100305;28;20049;-70
2023/08/19 10:44:38;;;;;;;13.68;12.18;;;;;;;;;;10098980;28;20059;-68
2023/08/19 10:49:33;;;;;;;14.20;12.82;;;;;;;;;;10095667;28;20057;-69
2023/08/19 10:54:29;;;;;;;14.30;12.90;;;;;;;;;;10081856;28;20426;-69
2023/08/19 10:59:21;;;;;;;15.48;13.93;;;;;;;;;;10096966;28;20061;-67
2023/08/19 11:04:13;;;;;;;15.50;13.98;;;;;;;;;;10106496;28;20435;-69
2023/08/19 11:09:05;;;;;;;16.95;12.90;;;;;;;;;;10089516;28;20041;-69
2023/08/19 11:13:57;;;;;;;14.68;13.15;;;;;;;;;;10107867;28;20068;-69
2023/08/19 11:18:52;;;;;;;15.50;12.35;;;;;;;;;;10104958;28;20076;-69
2023/08/19 11:23:44;;;;;;;14.73;13.23;;;;;;;;;;10101690;28;20724;-69
2023/08/19 11:28:37;;;;;;;12.90;11.68;;;;;;;;;;10105405;28;20045;-67
2023/08/19 11:33:31;;;;;;;15.30;12.45;;;;;;;;;;10082189;28;20045;-69
2023/08/19 11:38:23;;;;;;;12.25;10.40;;;;;;;;;;10103360;28;20383;-69
2023/08/19 11:43:22;;;;;;;12.32;10.75;;;;;;;;;;10107778;28;20533;-67
2023/08/19 11:48:15;;;;;;;17.20;13.38;;;;;;;;;;10100977;28;20115;-69
2023/08/19 11:53:07;;;;;;;16.27;11.52;;;;;;;;;;10097277;28;20045;-68
2023/08/19 11:58:02;;;;;;;12.57;11.20;;;;;;;;;;10106164;28;20056;-69
2023/08/19 12:02:55;;;;;;;11.80;10.70;;;;;;;;;;10108166;28;20470;-67
2023/08/19 12:07:47;;;;;;;12.15;10.93;;;;;;;;;;10103083;28;20047;-66
2023/08/19 12:12:55;;;;;;;12.10;10.85;;;;;;;;;;10096205;28;20045;-65
2023/08/19 12:17:47;;;;;;;11.82;10.73;;;;;;;;;;10105726;28;20044;-67
2023/08/19 12:22:39;;;;;;;13.93;10.27;;;;;;;;;;10106271;28;20381;-65
2023/08/19 12:27:31;;;;;;;11.48;9.60;;;;;;;;;;10105939;28;20033;-66
2023/08/19 12:32:22;;;;;;;11.35;9.50;;;;;;;;;;10104303;28;20099;-65
2023/08/19 12:37:14;;;;;;;11.60;10.27;;;;;;;;;;10087866;28;20372;-66
2023/08/19 12:42:06;;;;;;;12.05;10.15;;;;;;;;;;10066913;28;20132;-65
2023/08/19 12:46:58;;;;;;;12.27;9.88;;;;;;;;;;10089555;28;20379;-65
2023/08/19 12:51:50;;;;;;;12.18;9.82;;;;;;;;;;10106996;28;20091;-65
2023/08/19 12:56:42;;;;;;;10.68;8.90;;;;;;;;;;10085583;28;20048;-67
2023/08/19 13:01:34;;;;;;;13.80;10.30;;;;;;;;;;10084540;28;20050;-66
2023/08/19 13:06:26;;;;;;;12.18;8.73;;;;;;;;;;10073915;28;20051;-67
2023/08/19 13:11:17;;;;;;;14.60;8.20;;;;;;;;;;10104570;28;20485;-66
2023/08/19 13:16:09;;;;;;;11.00;8.88;;;;;;;;;;10105088;28;20344;-66
2023/08/19 13:21:01;;;;;;;10.63;8.95;;;;;;;;;;10104740;28;20375;-67
2023/08/19 13:25:53;;;;;;;10.98;8.43;;;;;;;;;;10103795;28;20045;-67
2023/08/19 13:30:45;;;;;;;11.57;8.82;;;;;;;;;;10101449;28;20045;-68
2023/08/19 13:35:38;;;;;;;9.43;8.52;;;;;;;;;;10101333;28;20136;-68
2023/08/19 13:40:30;;;;;;;11.75;7.75;;;;;;;;;;10101503;28;20036;-68
2023/08/19 13:45:22;;;;;;;9.40;7.97;;;;;;;;;;10091954;28;20046;-68
2023/08/19 13:50:14;;;;;;;10.32;7.40;;;;;;;;;;10090981;28;20045;-67
2023/08/19 13:55:08;;;;;;;10.32;7.68;;;;;;;;;;10105011;28;20045;-68
2023/08/19 14:00:00;;;;;;;10.15;8.52;;;;;;;;;;10103957;28;20409;-69
2023/08/19 14:04:55;;;;;;;12.90;7.63;;;;;;;;;;10104059;28;20045;-67
2023/08/19 14:09:46;;;;;;;12.77;7.80;;;;;;;;;;10103430;28;20049;-67
2023/08/19 14:14:38;;;;;;;15.07;6.75;;;;;;;;;;10103362;28;20512;-67
2023/08/19 14:19:33;;;;;;;9.35;6.78;;;;;;;;;;10074902;28;20475;-67
2023/08/19 14:24:25;;;;;;;11.40;7.15;;;;;;;;;;10063667;28;20140;-68
2023/08/19 14:29:18;;;;;;;8.20;7.03;;;;;;;;;;10088799;28;20076;-67
2023/08/19 14:34:09;;;;;;;9.93;6.75;;;;;;;;;;10084401;28;20487;-67
2023/08/19 14:39:04;;;;;;;13.38;7.00;;;;;;;;;;10097284;28;20084;-67
2023/08/19 14:43:56;;;;;;;13.82;8.38;;;;;;;;;;10093192;28;20053;-69
2023/08/19 14:48:48;;;;;;;15.32;8.35;;;;;;;;;;10094479;28;20076;-68
2023/08/19 14:53:40;;;;;;;11.07;6.68;;;;;;;;;;10072259;28;20049;-68
2023/08/19 14:58:32;;;;;;;10.02;6.93;;;;;;;;;;10083907;28;20423;-69
2023/08/19 15:03:24;;;;;;;19.33;8.43;;;;;;;;;;10085710;28;20049;-69
2023/08/19 15:08:16;;;;;;;13.00;6.75;;;;;;;;;;10099661;28;20423;-67
2023/08/19 15:13:08;;;;;;;8.98;5.88;;;;;;;;;;10083904;28;20038;-68
2023/08/19 15:18:00;;;;;;;10.25;6.15;;;;;;;;;;10069246;28;20460;-67
2023/08/19 15:22:52;;;;;;;7.68;5.63;;;;;;;;;;10110570;28;20040;-67
2023/08/19 15:27:44;;;;;;;9.68;6.13;;;;;;;;;;10109706;28;20332;-67
2023/08/19 15:32:36;;;;;;;8.75;5.35;;;;;;;;;;10110177;28;20072;-67
2023/08/19 15:37:28;;;;;;;7.85;5.05;;;;;;;;;;10109679;28;20073;-67
2023/08/19 15:42:20;;;;;;;9.27;5.55;;;;;;;;;;10109498;28;20083;-69
2023/08/19 15:47:12;;;;;;;10.32;5.35;;;;;;;;;;10103198;28;20091;-69
2023/08/19 15:52:04;;;;;;;10.05;5.35;;;;;;;;;;10108943;28;20037;-68
2023/08/19 15:56:56;;;;;;;8.20;5.07;;;;;;;;;;10109359;28;20053;-69
2023/08/19 16:01:48;;;;;;;9.52;5.03;;;;;;;;;;10107555;28;20096;-68
2023/08/19 16:06:40;;;;;;;7.38;5.25;;;;;;;;;;10108415;28;20076;-69
2023/08/19 16:11:31;;;;;;;5.60;5.00;;;;;;;;;;10105198;28;20041;-69
2023/08/19 16:16:23;;;;;;;8.02;5.18;;;;;;;;;;10104805;28;20076;-68
2023/08/19 16:21:15;;;;;;;7.90;5.15;;;;;;;;;;10085731;28;20052;-68
2023/08/19 16:26:07;;;;;;;9.55;5.65;;;;;;;;;;10106796;28;20053;-67
2023/08/19 16:31:05;;;;;;;8.63;5.10;;;;;;;;;;10106386;28;20068;-69
2023/08/19 16:35:57;;;;;;;13.90;6.25;;;;;;;;;;10098769;28;20825;-68
2023/08/19 16:40:51;;;;;;;7.68;5.80;;;;;;;;;;10100054;28;20375;-68
2023/08/19 16:45:55;;;;;;;12.48;5.50;;;;;;;;;;10077966;28;20581;-65
2023/08/19 16:50:47;;;;;;;8.65;6.20;;;;;;;;;;10105801;28;20041;-68
2023/08/19 16:55:40;;;;;;;13.05;5.35;;;;;;;;;;10103221;28;20475;-69
2023/08/19 17:00:32;;;;;;;9.85;5.75;;;;;;;;;;10103809;28;20075;-67
2023/08/19 17:05:24;;;;;;;11.40;5.28;;;;;;;;;;10103676;28;20136;-66
2023/08/19 17:10:16;;;;;;;7.57;5.10;;;;;;;;;;10101249;28;20056;-68
2023/08/19 17:15:12;;;;;;;11.30;5.22;;;;;;;;;;10102068;28;20478;-68
2023/08/19 17:20:06;;;;;;;8.95;5.88;;;;;;;;;;10128697;28;20148;-69
2023/08/19 17:24:58;;;;;;;11.32;6.70;;;;;;;;;;10102538;28;20052;-67
2023/08/19 17:29:50;;;;;;;8.00;5.93;;;;;;;;;;10105529;28;20474;-67
2023/08/19 17:34:42;;;;;;;9.25;5.80;;;;;;;;;;10131649;28;20079;-67
2023/08/19 17:39:34;;;;;;;9.85;6.40;;;;;;;;;;10143465;28;20048;-66
2023/08/19 17:44:31;;;;;;;6.85;5.70;;;;;;;;;;10118499;28;20379;-67
2023/08/19 17:49:23;;;;;;;11.70;6.70;;;;;;;;;;10099621;28;20041;-67
2023/08/19 17:54:14;;;;;;;9.70;6.28;;;;;;;;;;10100620;28;20073;-65
2023/08/19 17:59:10;;;;;;;14.77;7.85;;;;;;;;;;10102894;28;20037;-66
2023/08/19 18:04:02;;;;;;;10.30;6.13;;;;;;;;;;10102425;28;20353;-68
2023/08/19 18:08:54;;;;;;;7.60;6.85;;;;;;;;;;10097860;28;20049;-67
2023/08/19 18:13:46;;;;;;;7.78;6.30;;;;;;;;;;10099036;28;20144;-68
2023/08/19 18:18:38;;;;;;;11.30;6.82;;;;;;;;;;10092408;28;20064;-68
2023/08/19 18:23:30;;;;;;;7.82;6.95;;;;;;;;;;10088857;28;20462;-69
2023/08/19 18:28:22;;;;;;;12.90;7.68;;;;;;;;;;10080721;28;20127;-69
2023/08/19 18:33:14;;;;;;;8.25;6.95;;;;;;;;;;10085728;28;20440;-68
2023/08/19 18:38:06;;;;;;;14.88;7.65;;;;;;;;;;10084957;28;20136;-69
2023/08/19 18:42:57;;;;;;;11.80;6.55;;;;;;;;;;10081117;28;20136;-67
2023/08/19 18:48:08;;;;;;;13.63;7.57;;;;;;;;;;10098739;28;20044;-68
2023/08/19 18:53:00;;;;;;;13.40;7.55;;;;;;;;;;10089243;28;20384;-69
2023/08/19 18:57:52;;;;;;;10.95;7.07;;;;;;;;;;10097281;28;20061;-67
2023/08/19 19:02:44;;;;;;;11.85;7.78;;;;;;;;;;10095794;28;20049;-66
2023/08/19 19:07:36;;;;;;;10.32;6.18;;;;;;;;;;10101752;28;20475;-66
2023/08/19 19:12:28;;;;;;;7.97;7.28;;;;;;;;;;10101123;28;20049;-66
2023/08/19 19:17:20;;;;;;;9.35;6.95;;;;;;;;;;10094710;28;20135;-69
2023/08/19 19:22:12;;;;;;;7.97;7.07;;;;;;;;;;10094716;28;20046;-67
2023/08/19 19:27:05;;;;;;;13.93;6.95;;;;;;;;;;10119151;28;20095;-64
2023/08/19 19:31:57;;;;;;;10.30;7.47;;;;;;;;;;10106265;28;20426;-67
2023/08/19 19:36:49;;;;;;;7.53;6.53;;;;;;;;;;10109351;28;20041;-67
2023/08/19 19:41:40;;;;;;;8.20;7.05;;;;;;;;;;10107732;28;20099;-68
2023/08/19 19:46:33;;;;;;;12.13;7.40;;;;;;;;;;10106233;28;20135;-67
2023/08/19 19:51:25;;;;;;;10.95;7.05;;;;;;;;;;10094130;28;20060;-68
2023/08/19 19:56:17;;;;;;;11.50;6.75;;;;;;;;;;10067705;28;20133;-67
2023/08/19 20:01:10;;;;;;;11.02;7.43;;;;;;;;;;10098876;28;20107;-68
2023/08/19 20:06:02;;;;;;;12.30;7.95;;;;;;;;;;10105769;28;20092;-68
2023/08/19 20:10:54;;;;;;;15.32;8.55;;;;;;;;;;10106534;28;20052;-67
2023/08/19 20:15:46;;;;;;;11.60;8.05;;;;;;;;;;10098212;28;20068;-67
2023/08/19 20:20:38;;;;;;;11.43;8.55;;;;;;;;;;10107242;28;20048;-69
2023/08/19 20:25:30;;;;;;;9.65;8.68;;;;;;;;;;10089965;28;20077;-67
2023/08/19 20:30:25;;;;;;;9.82;7.45;;;;;;;;;;10106246;28;20811;-68
2023/08/19 20:35:19;;;;;;;8.85;7.50;;;;;;;;;;10107081;28;20056;-69
2023/08/19 20:40:12;;;;;;;8.35;7.55;;;;;;;;;;10106855;28;20440;-68
2023/08/19 20:45:05;;;;;;;9.48;8.30;;;;;;;;;;10093188;28;20060;-69
2023/08/19 20:49:56;;;;;;;10.10;8.23;;;;;;;;;;10100923;28;20478;-69
2023/08/19 20:54:48;;;;;;;12.45;8.27;;;;;;;;;;10106810;28;20079;-69
2023/08/19 20:59:40;;;;;;;10.50;9.60;;;;;;;;;;10086154;28;20049;-69
2023/08/19 21:04:32;;;;;;;14.35;8.98;;;;;;;;;;10097655;28;20047;-68
2023/08/19 21:09:24;;;;;;;11.07;8.93;;;;;;;;;;10071012;28;20033;-69
2023/08/19 21:14:16;;;;;;;10.02;9.02;;;;;;;;;;10093973;28;20037;-69
2023/08/19 21:19:07;;;;;;;10.43;8.18;;;;;;;;;;10102927;28;20041;-69
2023/08/19 21:23:59;;;;;;;11.88;9.38;;;;;;;;;;10105630;28;20041;-68
2023/08/19 21:28:51;;;;;;;10.95;9.18;;;;;;;;;;10105694;28;20095;-69
2023/08/19 21:33:43;;;;;;;10.10;7.72;;;;;;;;;;10095273;28;20463;-67
2023/08/19 21:38:35;;;;;;;9.75;8.77;;;;;;;;;;10101103;28;20406;-69
2023/08/19 21:43:27;;;;;;;9.30;8.35;;;;;;;;;;10105097;28;20052;-67
2023/08/19 21:48:19;;;;;;;13.52;8.90;;;;;;;;;;10104968;28;20506;-69
2023/08/19 21:53:11;;;;;;;18.88;9.48;;;;;;;;;;10104117;28;20037;-68
2023/08/19 21:58:04;;;;;;;9.82;8.82;;;;;;;;;;10103581;28;20152;-69
2023/08/19 22:02:56;;;;;;;13.00;9.05;;;;;;;;;;10104131;28;20368;-67
2023/08/19 22:07:48;;;;;;;9.30;8.30;;;;;;;;;;10096730;28;20107;-68
2023/08/19 22:12:40;;;;;;;11.48;8.82;;;;;;;;;;10120161;28;20478;-66
2023/08/19 22:17:31;;;;;;;9.55;8.55;;;;;;;;;;10103028;28;20084;-68
2023/08/19 22:22:26;;;;;;;11.13;9.43;;;;;;;;;;10103726;28;20870;-68
2023/08/19 22:27:17;;;;;;;14.25;8.38;;;;;;;;;;10103971;28;20467;-68
2023/08/19 22:32:09;;;;;;;10.10;8.55;;;;;;;;;;10103076;28;20045;-68
2023/08/19 22:37:01;;;;;;;10.13;8.65;;;;;;;;;;10103112;28;20041;-68
2023/08/19 22:41:53;;;;;;;14.60;9.98;;;;;;;;;;10094250;28;20050;-68
2023/08/19 22:46:45;;;;;;;10.90;9.10;;;;;;;;;;10090989;28;20426;-66
2023/08/19 22:51:37;;;;;;;10.57;9.35;;;;;;;;;;10097720;28;20120;-67
2023/08/19 22:56:29;;;;;;;9.68;8.68;;;;;;;;;;10104450;28;20592;-68
2023/08/19 23:01:21;;;;;;;12.02;9.48;;;;;;;;;;10107018;28;20053;-67
2023/08/19 23:06:13;;;;;;;9.70;8.35;;;;;;;;;;10107147;28;20131;-68
2023/08/19 23:11:05;;;;;;;13.02;9.35;;;;;;;;;;10108401;28;20120;-68
2023/08/19 23:15:57;;;;;;;10.10;9.07;;;;;;;;;;10110415;28;20107;-66
2023/08/19 23:20:49;;;;;;;10.13;9.23;;;;;;;;;;10109405;28;20135;-66
2023/08/19 23:25:40;;;;;;;9.50;8.00;;;;;;;;;;10109968;28;20091;-68
2023/08/19 23:30:33;;;;;;;11.45;9.15;;;;;;;;;;10109564;28;20041;-69
2023/08/19 23:35:25;;;;;;;9.82;8.52;;;;;;;;;;10109944;28;20430;-67
2023/08/19 23:40:16;;;;;;;10.13;8.80;;;;;;;;;;10109454;28;20117;-66
2023/08/19 23:45:10;;;;;;;10.00;8.93;;;;;;;;;;10101645;28;20080;-67
2023/08/19 23:50:02;;;;;;;10.02;8.88;;;;;;;;;;10108636;28;20459;-68
2023/08/19 23:54:54;;;;;;;14.30;8.40;;;;;;;;;;10108809;28;20137;-66
2023/08/19 23:59:47;;;;;;;9.07;8.27;;;;;;;;;;10105505;28;20053;-67
